createdAt,value
2022-08-02T00:00:45.743Z,80.50
2022-08-02T00:03:13.794Z,81.00
2022-08-02T00:05:41.875Z,81.60
2022-08-02T00:08:21.093Z,82.10
2022-08-02T00:10:49.427Z,81.80
2022-08-02T00:13:18.895Z,82.40
2022-08-02T00:15:47.128Z,83.20
2022-08-02T00:18:15.097Z,82.40
2022-08-02T00:20:43.454Z,82.80
2022-08-02T00:23:11.524Z,83.20
2022-08-02T00:25:54.736Z,83.10
2022-08-02T00:28:27.919Z,83.30
2022-08-02T00:30:57.594Z,82.90
2022-08-02T00:34:26.780Z,83.10
2022-08-02T00:36:13.950Z,82.10
2022-08-02T00:38:42.311Z,82.00
2022-08-02T00:41:16.219Z,81.30
2022-08-02T00:43:47.116Z,81.40
2022-08-02T00:46:16.133Z,81.60
2022-08-02T00:48:44.552Z,82.00
2022-08-02T00:51:13.762Z,81.60
2022-08-02T00:53:41.974Z,82.00
2022-08-02T00:56:10.344Z,81.90
2022-08-02T00:58:39.119Z,81.80
2022-08-02T01:01:08.530Z,82.00
2022-08-02T01:03:36.694Z,82.20
2022-08-02T01:06:12.190Z,82.40
2022-08-02T01:08:40.728Z,82.20
2022-08-02T01:11:09.194Z,82.10
2022-08-02T01:13:37.592Z,82.10
2022-08-02T01:16:16.999Z,82.10
2022-08-02T01:18:49.244Z,82.50
2022-08-02T01:21:39.392Z,82.50
2022-08-02T01:24:25.668Z,82.70
2022-08-02T01:27:01.780Z,82.70
2022-08-02T01:29:32.793Z,82.70
2022-08-02T01:32:05.694Z,82.50
2022-08-02T01:34:38.352Z,82.70
2022-08-02T01:37:15.347Z,83.00
2022-08-02T01:39:45.999Z,83.10
2022-08-02T01:42:15.897Z,83.20
2022-08-02T01:44:47.861Z,82.80
2022-08-02T01:47:20.497Z,82.60
2022-08-02T01:49:51.841Z,82.60
2022-08-02T01:52:24.811Z,82.20
2022-08-02T01:54:59.330Z,81.70
2022-08-02T01:57:28.903Z,81.50
2022-08-02T02:00:01.604Z,81.60
2022-08-02T02:02:33.154Z,81.90
2022-08-02T02:05:04.263Z,82.00
2022-08-02T02:07:34.796Z,82.10
2022-08-02T02:10:05.474Z,82.20
2022-08-02T02:12:38.187Z,82.30
2022-08-02T02:15:10.861Z,82.40
2022-08-02T02:18:10.677Z,82.50
2022-08-02T02:20:31.345Z,82.70
2022-08-02T02:23:00.430Z,82.80
2022-08-02T02:25:36.343Z,82.90
2022-08-02T02:28:12.209Z,82.90
2022-08-02T02:30:47.647Z,83.50
2022-08-02T02:33:19.204Z,83.50
2022-08-02T02:35:50.863Z,83.60
2022-08-02T02:38:21.634Z,83.80
2022-08-02T02:40:50.994Z,84.20
2022-08-02T02:43:19.425Z,84.70
2022-08-02T02:45:49.007Z,84.90
2022-08-02T02:48:18.504Z,85.00
2022-08-02T02:50:47.345Z,85.20
2022-08-02T02:53:19.369Z,85.40
2022-08-02T02:56:01.988Z,85.50
2022-08-02T02:58:31.669Z,85.60
2022-08-02T03:01:19.195Z,85.70
2022-08-02T03:03:48.404Z,85.80
2022-08-02T03:06:16.556Z,86.00
2022-08-02T03:08:44.781Z,86.20
2022-08-02T03:11:16.300Z,86.50
2022-08-02T03:13:45.076Z,86.40
2022-08-02T03:16:15.225Z,86.40
2022-08-02T03:18:44.811Z,86.50
2022-08-02T03:21:14.315Z,86.70
2022-08-02T03:23:44.123Z,86.60
2022-08-02T03:26:12.417Z,86.70
2022-08-02T03:28:41.159Z,86.80
2022-08-02T03:31:09.325Z,86.80
2022-08-02T03:33:38.938Z,87.40
2022-08-02T03:36:10.152Z,87.60
2022-08-02T03:38:39.615Z,87.60
2022-08-02T03:41:08.718Z,88.10
2022-08-02T03:43:38.102Z,88.20
2022-08-02T03:46:08.823Z,88.70
2022-08-02T03:48:39.690Z,87.90
2022-08-02T03:51:08.791Z,87.60
2022-08-02T03:53:37.548Z,87.90
2022-08-02T03:56:07.452Z,87.80
2022-08-02T03:58:35.632Z,88.50
2022-08-02T04:01:04.076Z,88.70
2022-08-02T04:03:32.210Z,89.40
2022-08-02T04:06:04.479Z,88.80
2022-08-02T04:08:37.677Z,89.00
2022-08-02T04:11:24.657Z,89.40
2022-08-02T04:13:56.685Z,90.10
2022-08-02T04:16:30.536Z,90.20
2022-08-02T04:19:02.335Z,90.30
2022-08-02T04:21:48.773Z,90.30
2022-08-02T04:24:24.571Z,90.20
2022-08-02T04:26:57.759Z,90.30
2022-08-02T04:29:33.043Z,90.10
2022-08-02T04:32:02.207Z,90.20
2022-08-02T04:34:30.657Z,90.20
2022-08-02T04:37:01.036Z,90.20
2022-08-02T04:39:29.333Z,90.20
2022-08-02T04:41:57.903Z,90.60
2022-08-02T04:44:26.554Z,90.30
2022-08-02T04:46:55.936Z,90.20
2022-08-02T04:49:24.257Z,90.10
2022-08-02T04:51:52.504Z,90.20
2022-08-02T04:54:22.055Z,89.90
2022-08-02T04:56:50.142Z,89.80
2022-08-02T04:59:18.467Z,89.80
2022-08-02T05:01:46.520Z,89.90
2022-08-02T05:04:14.629Z,89.80
2022-08-02T05:06:42.785Z,90.00
2022-08-02T05:09:10.890Z,90.10
2022-08-02T05:11:40.216Z,90.20
2022-08-02T05:14:08.786Z,90.20
2022-08-02T05:16:36.944Z,90.30
2022-08-02T05:19:04.987Z,90.40
2022-08-02T05:21:33.081Z,90.40
2022-08-02T05:24:01.358Z,90.40
2022-08-02T05:26:29.481Z,90.50
2022-08-02T05:28:59.367Z,90.60
2022-08-02T05:31:27.494Z,90.60
2022-08-02T05:33:55.684Z,90.60
2022-08-02T05:36:23.834Z,90.60
2022-08-02T05:38:53.177Z,90.50
2022-08-02T05:41:28.685Z,90.50
2022-08-02T05:43:58.109Z,90.50
2022-08-02T05:46:26.282Z,90.50
2022-08-02T05:48:54.485Z,90.30
2022-08-02T05:51:27.985Z,90.40
2022-08-02T05:54:04.289Z,90.40
2022-08-02T05:56:36.439Z,90.30
2022-08-02T05:59:11.579Z,90.30
2022-08-02T06:01:42.404Z,90.10
2022-08-02T06:04:12.419Z,90.10
2022-08-02T06:06:45.978Z,90.00
2022-08-02T06:09:21.002Z,90.00
2022-08-02T06:12:11.108Z,89.80
2022-08-02T06:14:42.702Z,89.00
2022-08-02T06:17:11.605Z,87.40
2022-08-02T06:19:51.603Z,86.90
2022-08-02T06:22:32.747Z,86.50
2022-08-02T06:25:05.716Z,86.40
2022-08-02T06:27:35.192Z,86.50
2022-08-02T06:30:08.182Z,86.30
2022-08-02T06:32:36.750Z,86.40
2022-08-02T06:35:06.492Z,85.10
2022-08-02T06:37:39.586Z,84.10
2022-08-02T06:40:15.727Z,83.30
2022-08-02T06:42:50.628Z,83.30
2022-08-02T06:45:20.197Z,82.80
2022-08-02T06:47:48.358Z,82.40
2022-08-02T06:50:16.682Z,80.60
2022-08-02T06:52:44.646Z,81.30
2022-08-02T06:55:12.735Z,81.50
2022-08-02T06:57:41.001Z,80.50
2022-08-02T07:00:10.386Z,80.50
2022-08-02T07:02:40.634Z,80.30
2022-08-02T07:05:10.351Z,80.60
2022-08-02T07:07:38.747Z,78.10
2022-08-02T07:10:07.522Z,78.40
2022-08-02T07:12:36.253Z,78.80
2022-08-02T07:15:07.244Z,78.90
2022-08-02T07:17:35.912Z,78.40
2022-08-02T07:20:06.781Z,77.30
2022-08-02T07:22:34.941Z,76.40
2022-08-02T07:25:03.163Z,76.10
2022-08-02T07:27:31.350Z,75.60
2022-08-02T07:29:59.414Z,75.80
2022-08-02T07:32:30.506Z,76.10
2022-08-02T07:34:59.395Z,74.80
2022-08-02T07:37:53.689Z,74.30
2022-08-02T07:40:21.154Z,73.90
2022-08-02T07:42:52.408Z,73.50
2022-08-02T07:45:21.922Z,73.80
2022-08-02T07:47:51.456Z,74.10
2022-08-02T07:50:21.014Z,74.60
2022-08-02T07:52:57.626Z,74.10
2022-08-02T07:55:39.351Z,74.40
2022-08-02T07:58:12.122Z,71.60
2022-08-02T08:00:41.955Z,71.40
2022-08-02T08:03:09.986Z,69.90
2022-08-02T08:05:38.196Z,70.60
2022-08-02T08:08:09.416Z,68.80
2022-08-02T08:10:41.370Z,69.20
2022-08-02T08:13:09.497Z,69.60
2022-08-02T08:15:37.687Z,68.90
2022-08-02T08:18:06.529Z,69.10
2022-08-02T08:20:34.783Z,69.80
2022-08-02T08:23:03.425Z,69.50
2022-08-02T08:25:32.905Z,69.30
2022-08-02T08:28:08.170Z,69.70
2022-08-02T08:30:36.327Z,69.90
2022-08-02T08:33:04.518Z,69.60
2022-08-02T08:35:32.911Z,68.60
2022-08-02T08:38:05.462Z,67.70
2022-08-02T08:40:37.740Z,67.70
2022-08-02T08:43:06.366Z,66.70
2022-08-02T08:45:34.490Z,66.10
2022-08-02T08:48:08.811Z,66.50
2022-08-02T08:50:38.764Z,65.60
2022-08-02T08:53:12.441Z,65.60
2022-08-02T08:55:44.772Z,64.90
2022-08-02T08:58:14.182Z,64.80
2022-08-02T09:00:42.790Z,63.60
2022-08-02T09:03:11.368Z,64.30
2022-08-02T09:05:41.830Z,64.40
2022-08-02T09:08:14.856Z,64.70
2022-08-02T09:10:47.622Z,65.40
2022-08-02T09:13:31.370Z,64.90
2022-08-02T09:16:12.449Z,63.40
2022-08-02T09:18:46.424Z,64.20
2022-08-02T09:21:16.754Z,62.90
2022-08-02T09:23:46.812Z,63.30
2022-08-02T09:26:18.774Z,63.30
2022-08-02T09:28:50.029Z,64.20
2022-08-02T09:31:19.867Z,61.80
2022-08-02T09:33:54.319Z,62.60
2022-08-02T09:36:23.367Z,62.60
2022-08-02T09:38:58.230Z,62.20
2022-08-02T09:41:30.137Z,61.50
2022-08-02T09:44:04.326Z,60.90
2022-08-02T09:46:38.315Z,59.90
2022-08-02T09:49:09.666Z,59.50
2022-08-02T09:51:40.359Z,59.20
2022-08-02T09:54:10.181Z,59.70
2022-08-02T09:56:45.546Z,59.70
2022-08-02T09:59:14.513Z,59.10
2022-08-02T10:01:50.567Z,60.00
2022-08-02T10:04:22.604Z,59.60
2022-08-02T10:06:51.772Z,59.20
2022-08-02T10:09:20.447Z,59.30
2022-08-02T10:11:50.303Z,57.00
2022-08-02T10:14:20.513Z,57.10
2022-08-02T10:16:48.592Z,57.30
2022-08-02T10:19:17.648Z,57.30
2022-08-02T10:22:07.393Z,55.40
2022-08-02T10:24:39.549Z,56.50
2022-08-02T10:27:20.343Z,55.70
2022-08-02T10:29:54.320Z,55.50
2022-08-02T10:32:28.098Z,55.20
2022-08-02T10:35:18.202Z,55.70
2022-08-02T10:37:50.807Z,55.70
2022-08-02T10:40:26.873Z,56.20
2022-08-02T10:42:59.554Z,56.50
2022-08-02T10:45:29.880Z,54.90
2022-08-02T10:48:03.687Z,55.10
2022-08-02T10:50:56.035Z,55.70
2022-08-02T10:53:34.248Z,56.30
2022-08-02T10:56:05.070Z,56.20
2022-08-02T10:58:35.683Z,54.80
2022-08-02T11:01:07.106Z,54.60
2022-08-02T11:03:41.306Z,54.80
2022-08-02T11:06:25.160Z,55.00
2022-08-02T11:09:31.440Z,54.10
2022-08-02T11:12:03.185Z,53.40
2022-08-02T11:14:33.721Z,53.10
2022-08-02T11:17:13.815Z,53.40
2022-08-02T11:20:15.952Z,54.90
2022-08-02T11:22:45.969Z,54.40
2022-08-02T11:26:02.772Z,53.60
2022-08-02T11:28:26.113Z,54.90
2022-08-02T11:31:03.085Z,54.30
2022-08-02T11:33:33.511Z,53.60
2022-08-02T11:36:03.602Z,52.90
2022-08-02T11:38:31.715Z,53.60
2022-08-02T11:41:00.159Z,53.30
2022-08-02T11:43:34.930Z,52.90
2022-08-02T11:46:05.610Z,52.60
2022-08-02T11:48:35.159Z,52.90
2022-08-02T11:51:10.749Z,53.00
2022-08-02T11:53:48.789Z,52.10
2022-08-02T11:56:21.780Z,51.10
2022-08-02T11:59:04.995Z,51.50
2022-08-02T12:01:45.032Z,52.50
2022-08-02T12:04:22.679Z,52.40
2022-08-02T12:07:01.947Z,51.70
2022-08-02T12:09:32.963Z,51.70
2022-08-02T12:12:02.186Z,51.90
2022-08-02T12:14:32.838Z,52.20
2022-08-02T12:17:19.715Z,49.50
2022-08-02T12:19:49.221Z,49.80
2022-08-02T12:22:19.524Z,49.20
2022-08-02T12:24:54.633Z,48.70
2022-08-02T12:27:34.579Z,47.40
2022-08-02T12:30:08.645Z,47.80
2022-08-02T12:32:38.635Z,48.00
2022-08-02T12:35:10.300Z,47.50
2022-08-02T12:37:41.567Z,47.70
2022-08-02T12:40:25.399Z,47.70
2022-08-02T12:42:57.148Z,47.80
2022-08-02T12:45:26.661Z,47.80
2022-08-02T12:48:06.580Z,46.80
2022-08-02T12:50:37.586Z,45.80
2022-08-02T12:53:09.277Z,46.30
2022-08-02T12:56:02.024Z,46.00
2022-08-02T12:58:29.586Z,45.60
2022-08-02T13:01:00.128Z,46.00
2022-08-02T13:04:10.525Z,46.00
2022-08-02T13:09:16.829Z,46.70
2022-08-02T13:11:45.586Z,46.20
2022-08-02T13:14:15.132Z,46.30
2022-08-02T13:16:45.156Z,45.80
2022-08-02T13:19:16.227Z,46.00
2022-08-02T13:22:01.091Z,45.70
2022-08-02T13:24:41.268Z,46.10
2022-08-02T13:27:18.113Z,46.40
2022-08-02T13:29:46.536Z,45.50
2022-08-02T13:32:15.387Z,46.40
2022-08-02T13:34:45.287Z,46.60
2022-08-02T13:37:13.594Z,46.50
2022-08-02T13:39:41.735Z,46.10
2022-08-02T13:42:16.930Z,45.10
2022-08-02T13:44:45.350Z,44.50
2022-08-02T13:47:13.588Z,43.90
2022-08-02T13:49:49.696Z,44.90
2022-08-02T13:52:21.237Z,44.90
2022-08-02T13:54:49.356Z,42.40
2022-08-02T13:57:17.571Z,40.30
2022-08-02T13:59:58.379Z,37.90
2022-08-02T14:02:28.394Z,37.00
2022-08-02T14:04:57.082Z,35.50
2022-08-02T14:07:26.500Z,33.70
2022-08-02T14:09:54.670Z,34.00
2022-08-02T14:12:22.740Z,33.40
2022-08-02T14:14:51.537Z,32.30
2022-08-02T14:17:19.757Z,31.00
2022-08-02T14:19:48.064Z,29.80
2022-08-02T14:22:16.399Z,30.20
2022-08-02T14:24:45.992Z,29.50
2022-08-02T14:27:14.104Z,28.80
2022-08-02T14:29:42.261Z,28.70
2022-08-02T14:32:10.928Z,29.00
2022-08-02T14:34:39.528Z,28.80
2022-08-02T14:37:07.763Z,28.40
2022-08-02T14:39:43.664Z,28.70
2022-08-02T14:42:25.301Z,30.40
2022-08-02T14:44:53.553Z,30.50
2022-08-02T14:47:21.658Z,30.90
2022-08-02T14:49:50.647Z,31.60
2022-08-02T14:52:19.959Z,32.50
2022-08-02T14:54:48.161Z,33.10
2022-08-02T14:57:16.584Z,33.60
2022-08-02T14:59:47.281Z,33.40
2022-08-02T15:02:16.090Z,33.80
2022-08-02T15:04:44.464Z,34.50
2022-08-02T15:07:14.152Z,35.70
2022-08-02T15:09:42.598Z,35.10
2022-08-02T15:12:11.984Z,35.30
2022-08-02T15:14:40.612Z,34.70
2022-08-02T15:17:10.854Z,33.80
2022-08-02T15:19:58.840Z,32.20
2022-08-02T15:22:28.946Z,32.50
2022-08-02T15:24:57.157Z,31.20
2022-08-02T15:27:25.205Z,30.90
2022-08-02T15:29:59.992Z,31.70
2022-08-02T15:32:29.848Z,31.80
2022-08-02T15:34:58.115Z,32.20
2022-08-02T15:37:31.155Z,32.80
2022-08-02T15:39:59.959Z,33.50
2022-08-02T15:42:30.553Z,33.70
2022-08-02T15:44:59.553Z,34.10
2022-08-02T15:47:29.142Z,33.90
2022-08-02T15:49:58.462Z,32.90
2022-08-02T15:52:26.890Z,32.60
2022-08-02T15:54:55.003Z,33.00
2022-08-02T15:57:23.546Z,33.60
2022-08-02T15:59:53.030Z,33.30
2022-08-02T16:02:21.343Z,32.50
2022-08-02T16:04:50.921Z,31.50
2022-08-02T16:07:19.056Z,31.10
2022-08-02T16:09:47.262Z,31.50
2022-08-02T16:12:15.916Z,31.50
2022-08-02T16:14:45.630Z,30.80
2022-08-02T16:17:13.806Z,31.10
2022-08-02T16:20:03.324Z,31.20
2022-08-02T16:22:31.493Z,31.40
2022-08-02T16:24:59.489Z,31.20
2022-08-02T16:27:27.772Z,31.10
2022-08-02T16:29:56.127Z,31.60
2022-08-02T16:32:24.220Z,31.80
2022-08-02T16:35:07.661Z,31.90
2022-08-02T16:37:52.028Z,32.10
2022-08-02T16:40:21.346Z,32.70
2022-08-02T16:42:50.850Z,32.90
2022-08-02T16:45:21.136Z,33.30
2022-08-02T16:47:56.080Z,33.60
2022-08-02T16:50:28.652Z,34.10
2022-08-02T16:52:59.219Z,34.10
2022-08-02T16:55:29.269Z,34.10
2022-08-02T16:58:00.469Z,33.90
2022-08-02T17:00:29.494Z,33.70
2022-08-02T17:02:59.463Z,33.70
2022-08-02T17:05:38.207Z,33.30
2022-08-02T17:08:19.675Z,32.90
2022-08-02T17:10:47.917Z,33.60
2022-08-02T17:13:16.059Z,33.60
2022-08-02T17:16:16.703Z,33.30
2022-08-02T17:18:34.273Z,33.20
2022-08-02T17:21:10.839Z,33.10
2022-08-02T17:24:04.398Z,33.70
2022-08-02T17:26:30.059Z,34.60
2022-08-02T17:29:16.447Z,35.60
2022-08-02T17:32:05.178Z,36.50
2022-08-02T17:34:35.184Z,37.40
2022-08-02T17:37:05.832Z,38.30
2022-08-02T17:39:44.316Z,38.80
2022-08-02T17:42:23.190Z,38.90
2022-08-02T17:45:16.700Z,39.40
2022-08-02T17:48:04.023Z,39.80
2022-08-02T17:50:33.520Z,40.30
2022-08-02T17:53:02.051Z,40.60
2022-08-02T17:55:33.190Z,40.70
2022-08-02T17:58:01.326Z,41.20
2022-08-02T18:00:34.090Z,41.80
2022-08-02T18:03:05.675Z,42.00
2022-08-02T18:08:25.004Z,41.00
2022-08-02T18:10:55.717Z,41.30
2022-08-02T18:13:24.575Z,41.70
2022-08-02T18:15:57.155Z,42.10
2022-08-02T18:18:29.300Z,42.60
2022-08-02T18:21:15.494Z,43.70
2022-08-02T18:23:48.663Z,44.40
2022-08-02T18:26:20.898Z,45.10
2022-08-02T18:29:08.664Z,45.90
2022-08-02T18:31:39.526Z,46.30
2022-08-02T18:34:08.855Z,47.00
2022-08-02T18:36:37.090Z,47.80
2022-08-02T18:39:16.047Z,48.00
2022-08-02T18:41:47.879Z,48.00
2022-08-02T18:44:16.757Z,48.20
2022-08-02T18:46:46.909Z,48.80
2022-08-02T18:49:17.599Z,49.50
2022-08-02T18:51:46.058Z,50.10
2022-08-02T18:54:14.769Z,50.80
2022-08-02T18:56:47.378Z,51.10
2022-08-02T18:59:18.060Z,51.40
2022-08-02T19:01:50.680Z,51.70
2022-08-02T19:04:26.873Z,52.00
2022-08-02T19:06:56.645Z,52.30
2022-08-02T19:09:32.043Z,52.50
2022-08-02T19:12:00.058Z,52.70
2022-08-02T19:14:29.551Z,52.90
2022-08-02T19:17:11.643Z,53.70
2022-08-02T19:19:48.565Z,53.70
2022-08-02T19:22:20.409Z,54.30
2022-08-02T19:24:51.749Z,55.20
2022-08-02T19:27:26.037Z,55.40
2022-08-02T19:30:03.096Z,56.20
2022-08-02T19:32:41.447Z,56.50
2022-08-02T19:35:29.852Z,56.60
2022-08-02T19:38:07.897Z,57.10
2022-08-02T19:40:38.566Z,58.20
2022-08-02T19:44:25.146Z,58.00
2022-08-02T19:45:56.757Z,59.20
2022-08-02T19:48:27.206Z,58.90
2022-08-02T19:51:00.880Z,59.00
2022-08-02T19:53:48.050Z,59.30
2022-08-02T19:56:22.020Z,59.10
2022-08-02T19:58:55.062Z,59.90
2022-08-02T20:01:28.422Z,60.00
2022-08-02T20:04:06.660Z,60.50
2022-08-02T20:06:34.665Z,60.40
2022-08-02T20:09:04.156Z,60.70
2022-08-02T20:11:34.442Z,61.40
2022-08-02T20:14:04.618Z,61.70
2022-08-02T20:16:35.506Z,62.20
2022-08-02T20:19:04.177Z,62.70
2022-08-02T20:21:36.245Z,62.60
2022-08-02T20:24:07.366Z,63.30
2022-08-02T20:26:35.797Z,63.90
2022-08-02T20:29:06.492Z,64.50
2022-08-02T20:31:37.868Z,64.40
2022-08-02T20:34:07.273Z,64.30
2022-08-02T20:36:35.504Z,64.70
2022-08-02T20:39:03.754Z,64.60
2022-08-02T20:41:37.070Z,65.40
2022-08-02T20:44:16.134Z,64.90
2022-08-02T20:47:00.727Z,65.20
2022-08-02T20:49:41.428Z,66.00
2022-08-02T20:52:23.164Z,66.30
2022-08-02T20:54:52.789Z,66.40
2022-08-02T20:57:36.215Z,66.20
2022-08-02T21:00:11.641Z,66.60
2022-08-02T21:02:42.404Z,67.00
2022-08-02T21:05:17.474Z,67.30
2022-08-02T21:07:47.607Z,67.50
2022-08-02T21:10:16.197Z,67.80
2022-08-02T21:12:45.398Z,67.70
2022-08-02T21:15:13.733Z,68.50
2022-08-02T21:17:53.218Z,68.90
2022-08-02T21:20:29.311Z,68.40
2022-08-02T21:22:58.235Z,68.60
2022-08-02T21:25:51.133Z,68.70
2022-08-02T21:28:17.703Z,68.60
2022-08-02T21:30:46.642Z,68.70
2022-08-02T21:33:18.178Z,68.80
2022-08-02T21:35:52.261Z,69.10
2022-08-02T21:38:35.565Z,68.90
2022-08-02T21:41:06.086Z,69.50
2022-08-02T21:43:40.540Z,69.30
2022-08-02T21:46:14.601Z,69.30
2022-08-02T21:48:44.560Z,69.50
2022-08-02T21:51:15.728Z,69.90
2022-08-02T21:54:16.847Z,70.00
2022-08-02T21:56:32.631Z,70.40
2022-08-02T21:59:13.554Z,70.00
2022-08-02T22:01:52.773Z,70.30
2022-08-02T22:04:23.407Z,70.50
2022-08-02T22:06:51.825Z,70.70
2022-08-02T22:09:43.228Z,71.10
2022-08-02T22:12:10.068Z,71.30
2022-08-02T22:14:40.938Z,71.70
2022-08-02T22:17:13.774Z,71.70
2022-08-02T22:19:53.804Z,72.40
2022-08-02T22:22:28.255Z,72.20
2022-08-02T22:24:57.654Z,72.00
2022-08-02T22:28:36.139Z,72.30
2022-08-02T22:30:16.857Z,72.30
2022-08-02T22:33:15.392Z,72.50
2022-08-02T22:35:45.388Z,73.00
2022-08-02T22:38:18.373Z,73.00
2022-08-02T22:40:49.312Z,73.00
2022-08-02T22:43:22.966Z,73.20
2022-08-02T22:45:51.598Z,73.10
2022-08-02T22:48:20.464Z,73.80
2022-08-02T22:50:50.229Z,73.60
2022-08-02T22:53:24.716Z,74.00
2022-08-02T22:56:04.617Z,74.10
2022-08-02T22:58:32.855Z,74.30
2022-08-02T22:58:43.167Z,41.90
2022-08-02T23:01:01.126Z,74.50
2022-08-02T23:03:29.618Z,74.70
2022-08-02T23:05:59.231Z,74.80
2022-08-02T23:08:27.351Z,75.20
2022-08-02T23:10:55.327Z,75.10
2022-08-02T23:13:28.173Z,75.20
2022-08-02T23:16:14.377Z,75.30
2022-08-02T23:19:00.352Z,75.60
2022-08-02T23:21:45.730Z,76.00
2022-08-02T23:24:22.646Z,76.30
2022-08-02T23:26:50.801Z,76.40
2022-08-02T23:29:18.880Z,76.50
2022-08-02T23:31:47.072Z,76.50
2022-08-02T23:34:15.363Z,76.70
2022-08-02T23:36:44.841Z,77.00
2022-08-02T23:39:13.062Z,77.30
2022-08-02T23:41:41.439Z,77.60
2022-08-02T23:44:14.489Z,77.70
2022-08-02T23:46:43.139Z,78.00
2022-08-02T23:49:13.486Z,78.00
2022-08-02T23:51:41.869Z,78.50
2022-08-02T23:54:11.895Z,78.30
2022-08-02T23:56:41.032Z,78.40
2022-08-02T23:59:09.813Z,78.80
